createdAt,value
2023-04-30T00:00:43.063Z,9.64
2023-04-30T00:03:09.866Z,9.57
2023-04-30T00:05:37.529Z,9.67
2023-04-30T00:08:05.134Z,9.72
2023-04-30T00:10:31.859Z,9.67
2023-04-30T00:12:58.693Z,9.61
2023-04-30T00:15:25.412Z,9.69
2023-04-30T00:17:53.464Z,9.80
2023-04-30T00:20:20.364Z,9.80
2023-04-30T00:22:47.093Z,9.80
2023-04-30T00:25:14.479Z,9.77
2023-04-30T00:27:41.804Z,9.73
2023-04-30T00:30:08.863Z,9.63
2023-04-30T00:32:35.619Z,9.73
2023-04-30T00:35:02.694Z,9.74
2023-04-30T00:37:29.525Z,9.64
2023-04-30T00:39:56.426Z,9.71
2023-04-30T00:42:23.320Z,9.59
2023-04-30T00:44:50.051Z,9.63
2023-04-30T00:47:16.834Z,9.66
2023-04-30T00:49:43.535Z,9.38
2023-04-30T00:52:10.348Z,9.37
2023-04-30T00:54:37.474Z,9.44
2023-04-30T00:57:05.995Z,9.45
2023-04-30T00:59:33.355Z,9.44
2023-04-30T01:02:01.193Z,9.36
2023-04-30T01:04:28.943Z,9.28
2023-04-30T01:06:56.779Z,9.35
2023-04-30T01:09:23.554Z,9.40
2023-04-30T01:12:02.087Z,9.38
2023-04-30T01:14:31.466Z,9.33
2023-04-30T01:17:09.073Z,9.45
2023-04-30T01:19:41.675Z,9.45
2023-04-30T01:22:12.993Z,9.32
2023-04-30T01:24:57.870Z,9.33
2023-04-30T01:27:33.048Z,9.37
2023-04-30T01:29:59.740Z,9.37
2023-04-30T01:32:26.876Z,9.30
2023-04-30T01:34:53.637Z,9.26
2023-04-30T01:37:48.663Z,9.13
2023-04-30T01:40:43.550Z,9.17
2023-04-30T01:43:32.152Z,9.15
2023-04-30T01:46:05.339Z,9.14
2023-04-30T01:48:41.211Z,9.23
2023-04-30T01:51:13.030Z,9.27
2023-04-30T01:53:44.475Z,9.24
2023-04-30T01:56:17.324Z,9.26
2023-04-30T01:58:46.323Z,9.27
2023-04-30T02:01:31.039Z,9.20
2023-04-30T02:03:58.256Z,9.25
2023-04-30T02:06:30.396Z,9.15
2023-04-30T02:09:02.637Z,9.09
2023-04-30T02:11:30.031Z,9.16
2023-04-30T02:13:56.777Z,9.22
2023-04-30T02:16:24.226Z,9.24
2023-04-30T02:18:51.541Z,9.20
2023-04-30T02:21:18.605Z,9.21
2023-04-30T02:23:45.287Z,9.12
2023-04-30T02:26:12.026Z,9.11
2023-04-30T02:28:38.797Z,9.13
2023-04-30T02:31:06.102Z,9.14
2023-04-30T02:33:32.880Z,9.14
2023-04-30T02:36:00.976Z,9.08
2023-04-30T02:38:27.701Z,9.06
2023-04-30T02:40:54.498Z,9.09
2023-04-30T02:43:21.370Z,9.13
2023-04-30T02:45:48.458Z,9.10
2023-04-30T02:48:15.467Z,9.05
2023-04-30T02:50:42.115Z,9.09
2023-04-30T02:53:08.867Z,9.10
2023-04-30T02:55:35.515Z,9.15
2023-04-30T02:58:02.257Z,9.21
2023-04-30T03:00:28.982Z,8.97
2023-04-30T03:02:55.775Z,8.99
2023-04-30T03:05:23.873Z,9.06
2023-04-30T03:07:50.734Z,9.11
2023-04-30T03:10:19.265Z,9.02
2023-04-30T03:12:46.141Z,9.06
2023-04-30T03:15:12.961Z,9.05
2023-04-30T03:17:39.900Z,8.95
2023-04-30T03:20:07.694Z,9.02
2023-04-30T03:22:34.420Z,9.03
2023-04-30T03:25:01.289Z,9.07
2023-04-30T03:27:27.961Z,8.99
2023-04-30T03:29:54.736Z,8.93
2023-04-30T03:32:21.777Z,8.94
2023-04-30T03:34:48.541Z,8.91
2023-04-30T03:37:15.315Z,9.03
2023-04-30T03:39:42.191Z,8.97
2023-04-30T03:42:08.894Z,9.01
2023-04-30T03:44:35.780Z,9.06
2023-04-30T03:47:02.526Z,9.09
2023-04-30T03:49:29.295Z,9.05
2023-04-30T03:51:56.023Z,9.04
2023-04-30T03:54:22.925Z,9.13
2023-04-30T03:56:49.703Z,9.08
2023-04-30T03:59:16.497Z,9.13
2023-04-30T04:01:43.249Z,9.05
2023-04-30T04:04:10.092Z,9.00
2023-04-30T04:06:36.884Z,9.00
2023-04-30T04:09:04.710Z,9.10
2023-04-30T04:11:31.514Z,9.07
2023-04-30T04:13:58.255Z,9.06
2023-04-30T04:16:25.058Z,9.15
2023-04-30T04:18:51.836Z,9.04
2023-04-30T04:21:19.183Z,9.05
2023-04-30T04:23:45.794Z,9.05
2023-04-30T04:26:12.776Z,9.06
2023-04-30T04:28:39.369Z,9.08
2023-04-30T04:31:06.021Z,9.07
2023-04-30T04:33:33.214Z,9.18
2023-04-30T04:35:59.878Z,9.23
2023-04-30T04:38:26.495Z,9.15
2023-04-30T04:40:54.135Z,9.19
2023-04-30T04:43:21.182Z,9.19
2023-04-30T04:45:48.342Z,9.17
2023-04-30T04:48:15.425Z,9.16
2023-04-30T04:50:42.138Z,9.26
2023-04-30T04:53:08.834Z,9.27
2023-04-30T04:55:35.910Z,9.29
2023-04-30T04:58:02.580Z,9.35
2023-04-30T05:00:29.928Z,9.44
2023-04-30T05:02:56.892Z,9.50
2023-04-30T05:05:23.680Z,9.53
2023-04-30T05:07:52.503Z,9.55
2023-04-30T05:10:19.323Z,9.50
2023-04-30T05:12:46.251Z,9.50
2023-04-30T05:15:12.982Z,9.59
2023-04-30T05:17:39.648Z,9.57
2023-04-30T05:20:07.449Z,9.58
2023-04-30T05:22:34.283Z,9.63
2023-04-30T05:25:00.846Z,9.66
2023-04-30T05:27:27.739Z,9.75
2023-04-30T05:29:54.533Z,9.83
2023-04-30T05:32:23.180Z,9.95
2023-04-30T05:34:50.095Z,9.97
2023-04-30T05:37:17.784Z,10.04
2023-04-30T05:39:44.438Z,9.92
2023-04-30T05:42:11.108Z,9.98
2023-04-30T05:44:37.799Z,9.95
2023-04-30T05:47:04.467Z,10.02
2023-04-30T05:49:32.365Z,9.95
2023-04-30T05:52:00.271Z,10.02
2023-04-30T05:54:26.878Z,10.02
2023-04-30T05:56:53.502Z,10.06
2023-04-30T05:59:20.177Z,10.13
2023-04-30T06:01:46.992Z,10.17
2023-04-30T06:04:13.564Z,10.21
2023-04-30T06:06:40.199Z,10.22
2023-04-30T06:09:06.959Z,10.24
2023-04-30T06:11:33.709Z,10.26
2023-04-30T06:14:00.285Z,10.33
2023-04-30T06:16:26.968Z,10.27
2023-04-30T06:18:54.077Z,10.30
2023-04-30T06:21:20.882Z,10.44
2023-04-30T06:23:47.543Z,10.40
2023-04-30T06:26:15.440Z,10.48
2023-04-30T06:28:42.256Z,10.65
2023-04-30T06:31:09.046Z,10.67
2023-04-30T06:33:35.820Z,10.78
2023-04-30T06:36:02.597Z,10.95
2023-04-30T06:38:29.396Z,11.01
2023-04-30T06:40:56.245Z,11.07
2023-04-30T06:43:23.475Z,11.30
2023-04-30T06:45:50.115Z,11.01
2023-04-30T06:48:16.800Z,11.01
2023-04-30T06:50:46.280Z,11.08
2023-04-30T06:53:13.231Z,11.38
2023-04-30T06:55:41.568Z,11.49
2023-04-30T06:58:08.236Z,11.54
2023-04-30T07:00:35.255Z,11.64
2023-04-30T07:03:03.677Z,11.52
2023-04-30T07:05:31.663Z,11.44
2023-04-30T07:08:02.091Z,11.20
2023-04-30T07:10:28.979Z,11.36
2023-04-30T07:12:56.733Z,11.44
2023-04-30T07:15:23.828Z,11.36
2023-04-30T07:17:50.481Z,11.34
2023-04-30T07:20:17.345Z,11.48
2023-04-30T07:22:46.059Z,11.50
2023-04-30T07:25:13.775Z,11.64
2023-04-30T07:27:40.934Z,11.69
2023-04-30T07:30:11.531Z,11.71
2023-04-30T07:32:41.023Z,11.73
2023-04-30T07:35:07.994Z,11.63
2023-04-30T07:37:35.952Z,11.78
2023-04-30T07:40:03.857Z,11.79
2023-04-30T07:42:30.609Z,11.79
2023-04-30T07:44:57.555Z,12.04
2023-04-30T07:47:25.556Z,11.87
2023-04-30T07:49:52.361Z,11.84
2023-04-30T07:52:19.414Z,11.96
2023-04-30T07:54:46.114Z,11.79
2023-04-30T07:57:13.145Z,11.73
2023-04-30T07:59:39.828Z,11.70
2023-04-30T08:02:07.749Z,11.63
2023-04-30T08:04:34.838Z,11.75
2023-04-30T08:07:02.533Z,11.71
2023-04-30T08:09:29.238Z,11.71
2023-04-30T08:11:56.051Z,11.68
2023-04-30T08:14:22.931Z,11.95
2023-04-30T08:16:49.728Z,11.93
2023-04-30T08:19:16.398Z,12.12
2023-04-30T08:21:43.113Z,12.58
2023-04-30T08:24:09.926Z,12.72
2023-04-30T08:26:37.028Z,13.07
2023-04-30T08:29:03.776Z,12.92
2023-04-30T08:31:30.616Z,12.71
2023-04-30T08:33:57.476Z,12.65
2023-04-30T08:36:24.156Z,12.92
2023-04-30T08:38:51.021Z,12.95
2023-04-30T08:41:18.071Z,13.02
2023-04-30T08:43:45.156Z,13.10
2023-04-30T08:46:16.794Z,12.89
2023-04-30T08:48:43.962Z,12.97
2023-04-30T08:51:10.856Z,13.47
2023-04-30T08:53:38.632Z,13.19
2023-04-30T08:56:05.912Z,13.57
2023-04-30T08:58:32.861Z,13.38
2023-04-30T09:01:00.546Z,13.82
2023-04-30T09:03:28.501Z,14.13
2023-04-30T09:05:56.118Z,14.27
2023-04-30T09:08:45.077Z,13.52
2023-04-30T09:11:28.646Z,13.72
2023-04-30T09:13:57.898Z,13.94
2023-04-30T09:16:25.912Z,14.15
2023-04-30T09:18:52.963Z,14.27
2023-04-30T09:21:32.708Z,14.01
2023-04-30T09:24:01.707Z,14.45
2023-04-30T09:26:32.888Z,13.97
2023-04-30T09:29:00.758Z,14.32
2023-04-30T09:31:28.037Z,15.15
2023-04-30T09:33:54.972Z,15.69
2023-04-30T09:36:21.673Z,15.32
2023-04-30T09:38:48.444Z,15.45
2023-04-30T09:41:29.097Z,15.26
2023-04-30T09:43:56.554Z,15.26
2023-04-30T09:46:31.668Z,15.56
2023-04-30T09:48:59.890Z,15.36
2023-04-30T09:51:27.260Z,14.59
2023-04-30T09:53:54.892Z,14.95
2023-04-30T09:56:23.569Z,15.03
2023-04-30T09:58:54.722Z,15.53
2023-04-30T10:01:22.927Z,15.67
2023-04-30T10:03:50.296Z,15.16
2023-04-30T10:06:19.493Z,15.05
2023-04-30T10:08:51.875Z,15.24
2023-04-30T10:11:20.101Z,15.41
2023-04-30T10:13:53.729Z,15.11
2023-04-30T10:16:35.080Z,15.59
2023-04-30T10:19:07.750Z,15.55
2023-04-30T10:21:34.758Z,16.04
2023-04-30T10:24:01.810Z,15.22
2023-04-30T10:26:29.250Z,15.73
2023-04-30T10:28:59.108Z,16.57
2023-04-30T10:31:26.340Z,16.67
2023-04-30T10:34:11.882Z,16.52
2023-04-30T10:36:50.995Z,16.14
2023-04-30T10:39:22.683Z,16.66
2023-04-30T10:41:49.765Z,16.35
2023-04-30T10:44:21.944Z,16.37
2023-04-30T10:46:49.248Z,15.77
2023-04-30T10:49:16.186Z,15.57
2023-04-30T10:51:52.027Z,15.61
2023-04-30T10:54:28.131Z,15.81
2023-04-30T10:57:10.232Z,16.05
2023-04-30T10:59:37.235Z,15.87
2023-04-30T11:02:04.159Z,15.66
2023-04-30T11:04:31.064Z,16.16
2023-04-30T11:07:10.863Z,16.27
2023-04-30T11:09:45.544Z,16.53
2023-04-30T11:12:15.830Z,16.45
2023-04-30T11:14:46.419Z,16.18
2023-04-30T11:17:22.009Z,16.17
2023-04-30T11:19:50.533Z,16.58
2023-04-30T11:22:19.284Z,16.87
2023-04-30T11:24:52.084Z,16.73
2023-04-30T11:27:24.118Z,16.39
2023-04-30T11:29:54.376Z,16.21
2023-04-30T11:32:23.264Z,16.34
2023-04-30T11:34:50.712Z,16.47
2023-04-30T11:37:34.269Z,16.53
2023-04-30T11:40:03.043Z,16.65
2023-04-30T11:42:39.642Z,17.19
2023-04-30T11:45:13.980Z,17.34
2023-04-30T11:47:56.582Z,16.78
2023-04-30T11:50:31.344Z,17.17
2023-04-30T11:52:59.594Z,17.30
2023-04-30T11:55:27.307Z,17.11
2023-04-30T11:57:56.194Z,17.14
2023-04-30T12:00:28.976Z,16.59
2023-04-30T12:02:56.980Z,16.52
2023-04-30T12:05:25.886Z,16.27
2023-04-30T12:08:10.949Z,16.24
2023-04-30T12:10:37.659Z,16.66
2023-04-30T12:13:04.446Z,16.52
2023-04-30T12:15:32.885Z,16.53
2023-04-30T12:18:00.643Z,16.89
2023-04-30T12:20:29.767Z,16.84
2023-04-30T12:22:58.279Z,17.28
2023-04-30T12:25:25.285Z,17.15
2023-04-30T12:27:53.336Z,17.65
2023-04-30T12:30:26.982Z,18.36
2023-04-30T12:32:56.841Z,18.03
2023-04-30T12:35:25.011Z,17.61
2023-04-30T12:37:54.569Z,17.94
2023-04-30T12:40:26.416Z,18.12
2023-04-30T12:43:08.920Z,18.07
2023-04-30T12:45:55.318Z,17.34
2023-04-30T12:48:25.007Z,16.89
2023-04-30T12:50:55.074Z,17.39
2023-04-30T12:53:22.427Z,17.50
2023-04-30T12:56:12.377Z,17.93
2023-04-30T12:58:39.611Z,17.85
2023-04-30T13:01:06.622Z,17.74
2023-04-30T13:03:33.431Z,17.42
2023-04-30T13:06:02.932Z,17.08
2023-04-30T13:08:30.745Z,16.90
2023-04-30T13:10:58.129Z,17.01
2023-04-30T13:13:24.978Z,17.45
2023-04-30T13:15:51.692Z,17.53
2023-04-30T13:18:18.506Z,17.99
2023-04-30T13:20:45.564Z,17.81
2023-04-30T13:23:12.436Z,17.21
2023-04-30T13:25:39.620Z,17.06
2023-04-30T13:28:06.665Z,17.07
2023-04-30T13:30:34.551Z,17.75
2023-04-30T13:33:01.290Z,17.77
2023-04-30T13:35:28.602Z,18.04
2023-04-30T13:37:55.379Z,18.53
2023-04-30T13:40:22.189Z,18.72
2023-04-30T13:42:49.290Z,18.48
2023-04-30T13:45:16.532Z,18.11
2023-04-30T13:47:43.437Z,17.90
2023-04-30T13:50:10.725Z,17.43
2023-04-30T13:52:37.459Z,17.75
2023-04-30T13:55:04.737Z,17.89
2023-04-30T13:57:33.417Z,17.95
2023-04-30T14:00:00.198Z,18.21
2023-04-30T14:02:30.328Z,18.14
2023-04-30T14:05:05.949Z,18.21
2023-04-30T14:07:33.867Z,18.08
2023-04-30T14:10:00.729Z,18.24
2023-04-30T14:12:27.627Z,18.08
2023-04-30T14:14:54.476Z,18.11
2023-04-30T14:17:21.276Z,18.07
2023-04-30T14:19:48.081Z,18.00
2023-04-30T14:22:14.892Z,17.66
2023-04-30T14:24:41.627Z,17.62
2023-04-30T14:27:08.304Z,17.45
2023-04-30T14:29:35.123Z,17.21
2023-04-30T14:32:02.114Z,17.48
2023-04-30T14:34:28.927Z,17.47
2023-04-30T14:36:56.394Z,17.45
2023-04-30T14:39:23.240Z,17.29
2023-04-30T14:41:51.135Z,17.37
2023-04-30T14:44:18.475Z,17.45
2023-04-30T14:46:45.393Z,17.18
2023-04-30T14:49:12.075Z,17.29
2023-04-30T14:51:38.793Z,17.11
2023-04-30T14:54:05.579Z,17.06
2023-04-30T14:56:32.393Z,17.34
2023-04-30T14:58:59.168Z,17.15
2023-04-30T15:01:28.392Z,17.29
2023-04-30T15:03:55.450Z,17.11
2023-04-30T15:06:22.289Z,17.27
2023-04-30T15:08:49.054Z,17.01
2023-04-30T15:11:16.068Z,17.28
2023-04-30T15:13:42.840Z,17.34
2023-04-30T15:16:09.873Z,17.12
2023-04-30T15:18:37.407Z,17.25
2023-04-30T15:21:04.333Z,17.14
2023-04-30T15:23:31.266Z,17.06
2023-04-30T15:25:58.186Z,17.31
2023-04-30T15:28:25.009Z,17.09
2023-04-30T15:30:52.474Z,16.83
2023-04-30T15:33:19.948Z,17.13
2023-04-30T15:35:47.725Z,17.04
2023-04-30T15:38:14.616Z,17.11
2023-04-30T15:40:41.600Z,17.18
2023-04-30T15:43:08.353Z,17.22
2023-04-30T15:45:35.201Z,16.96
2023-04-30T15:48:02.056Z,17.00
2023-04-30T15:50:29.968Z,16.84
2023-04-30T15:52:56.813Z,16.53
2023-04-30T15:55:24.157Z,16.56
2023-04-30T15:57:51.427Z,16.40
2023-04-30T16:00:18.658Z,16.27
2023-04-30T16:02:45.545Z,16.13
2023-04-30T16:05:12.520Z,16.00
2023-04-30T16:07:41.256Z,15.97
2023-04-30T16:10:10.488Z,15.85
2023-04-30T16:12:37.558Z,15.83
2023-04-30T16:15:07.917Z,15.85
2023-04-30T16:17:34.697Z,15.82
2023-04-30T16:20:01.624Z,15.72
2023-04-30T16:22:28.496Z,15.73
2023-04-30T16:24:55.158Z,15.69
2023-04-30T16:27:22.159Z,15.47
2023-04-30T16:29:48.862Z,15.43
2023-04-30T16:32:15.860Z,15.41
2023-04-30T16:34:42.663Z,15.44
2023-04-30T16:37:09.625Z,15.49
2023-04-30T16:39:36.352Z,15.38
2023-04-30T16:42:03.215Z,15.38
2023-04-30T16:44:30.001Z,15.31
2023-04-30T16:46:59.513Z,15.28
2023-04-30T16:49:26.323Z,15.20
2023-04-30T16:51:53.053Z,15.12
2023-04-30T16:54:19.814Z,15.08
2023-04-30T16:56:46.790Z,15.16
2023-04-30T16:59:13.534Z,15.14
2023-04-30T17:01:40.396Z,15.08
2023-04-30T17:04:07.387Z,14.88
2023-04-30T17:06:35.742Z,14.81
2023-04-30T17:09:02.511Z,14.80
2023-04-30T17:11:29.339Z,14.62
2023-04-30T17:13:56.141Z,14.72
2023-04-30T17:16:23.182Z,14.49
2023-04-30T17:18:50.029Z,14.45
2023-04-30T17:21:16.835Z,14.43
2023-04-30T17:23:43.728Z,14.34
2023-04-30T17:26:10.490Z,14.15
2023-04-30T17:28:37.668Z,14.17
2023-04-30T17:31:07.132Z,13.97
2023-04-30T17:33:34.443Z,13.96
2023-04-30T17:36:01.658Z,13.74
2023-04-30T17:38:28.550Z,13.11
2023-04-30T17:40:56.813Z,13.15
2023-04-30T17:43:24.153Z,13.03
2023-04-30T17:45:53.883Z,12.93
2023-04-30T17:48:20.858Z,12.97
2023-04-30T17:50:47.853Z,12.73
2023-04-30T17:53:14.677Z,12.74
2023-04-30T17:55:41.594Z,12.67
2023-04-30T17:58:11.675Z,12.61
2023-04-30T18:00:39.587Z,12.70
2023-04-30T18:03:06.729Z,12.70
2023-04-30T18:05:35.597Z,12.55
2023-04-30T18:08:02.775Z,12.58
2023-04-30T18:10:29.625Z,12.57
2023-04-30T18:12:58.505Z,12.45
2023-04-30T18:15:25.722Z,12.38
2023-04-30T18:17:52.713Z,12.11
2023-04-30T18:20:19.591Z,12.03
2023-04-30T18:22:46.356Z,11.83
2023-04-30T18:25:13.823Z,11.68
2023-04-30T18:27:43.817Z,11.62
2023-04-30T18:30:11.675Z,11.56
2023-04-30T18:32:38.872Z,11.39
2023-04-30T18:35:06.103Z,11.28
2023-04-30T18:37:33.045Z,11.25
2023-04-30T18:40:00.656Z,11.25
2023-04-30T18:42:27.498Z,11.15
2023-04-30T18:44:56.032Z,11.03
2023-04-30T18:47:25.935Z,11.09
2023-04-30T18:49:53.697Z,10.90
2023-04-30T18:52:20.714Z,10.82
2023-04-30T18:54:47.512Z,10.71
2023-04-30T18:57:16.477Z,10.80
2023-04-30T18:59:43.274Z,10.68
2023-04-30T19:02:11.034Z,10.68
2023-04-30T19:04:38.866Z,10.51
2023-04-30T19:07:05.580Z,10.41
2023-04-30T19:09:38.338Z,10.24
2023-04-30T19:12:05.169Z,10.18
2023-04-30T19:14:33.553Z,10.07
2023-04-30T19:17:01.181Z,10.20
2023-04-30T19:19:27.957Z,10.14
2023-04-30T19:21:54.650Z,10.27
2023-04-30T19:24:22.764Z,10.06
2023-04-30T19:26:49.723Z,10.05
2023-04-30T19:29:16.889Z,10.21
2023-04-30T19:31:43.866Z,10.14
2023-04-30T19:34:12.516Z,10.07
2023-04-30T19:36:46.679Z,10.03
2023-04-30T19:39:17.462Z,9.97
2023-04-30T19:41:44.378Z,9.94
2023-04-30T19:44:11.670Z,9.85
2023-04-30T19:46:42.721Z,9.77
2023-04-30T19:49:11.777Z,9.69
2023-04-30T19:51:41.827Z,9.84
2023-04-30T19:54:15.259Z,9.62
2023-04-30T19:56:42.305Z,9.53
2023-04-30T19:59:10.522Z,9.54
2023-04-30T20:01:38.617Z,9.53
2023-04-30T20:16:39.870Z,9.38
2023-04-30T20:19:18.439Z,9.28
2023-04-30T20:22:32.213Z,9.05
2023-04-30T21:06:25.810Z,8.57
2023-04-30T21:08:52.529Z,8.37
2023-04-30T21:11:20.708Z,8.51
2023-04-30T21:13:48.439Z,8.56
2023-04-30T21:16:16.681Z,8.57
2023-04-30T21:18:44.533Z,8.45
2023-04-30T21:21:11.173Z,8.33
2023-04-30T21:23:38.191Z,8.29
2023-04-30T21:26:04.880Z,8.27
2023-04-30T21:28:31.565Z,8.19
2023-04-30T21:30:58.190Z,8.02
2023-04-30T21:33:25.071Z,8.02
2023-04-30T21:35:51.918Z,8.02
2023-04-30T21:38:18.493Z,8.03
2023-04-30T21:40:45.194Z,8.00
2023-04-30T21:43:12.079Z,8.04
2023-04-30T21:45:38.681Z,7.92
2023-04-30T21:48:05.707Z,7.79
2023-04-30T21:50:32.902Z,7.89
2023-04-30T21:52:59.638Z,7.87
2023-04-30T21:55:26.983Z,7.95
2023-04-30T21:57:53.775Z,7.87
2023-04-30T22:00:21.178Z,7.85
2023-04-30T22:02:49.098Z,7.79
2023-04-30T22:05:15.759Z,7.68
2023-04-30T22:07:42.510Z,7.85
2023-04-30T22:10:10.580Z,7.78
2023-04-30T22:12:37.744Z,7.84
2023-04-30T22:15:06.481Z,7.75
2023-04-30T22:17:33.708Z,7.64
2023-04-30T22:20:00.421Z,7.62
2023-04-30T22:22:27.073Z,7.57
2023-04-30T22:24:53.710Z,7.52
2023-04-30T22:27:20.298Z,7.50
2023-04-30T22:29:49.409Z,7.32
2023-04-30T22:32:16.805Z,7.36
2023-04-30T22:34:43.515Z,7.30
2023-04-30T22:37:12.879Z,7.32
2023-04-30T22:39:39.554Z,7.32
2023-04-30T22:42:06.225Z,7.29
2023-04-30T22:44:32.965Z,7.33
2023-04-30T22:46:59.762Z,7.14
2023-04-30T22:49:31.141Z,7.12
2023-04-30T22:51:59.005Z,6.94
2023-04-30T22:54:25.768Z,6.83
2023-04-30T22:56:52.465Z,6.68
2023-04-30T22:59:19.113Z,6.67
2023-04-30T23:01:45.867Z,6.62
2023-04-30T23:04:13.839Z,6.63
2023-04-30T23:06:41.836Z,6.63
2023-04-30T23:09:08.999Z,6.72
2023-04-30T23:11:35.777Z,6.73
2023-04-30T23:14:02.559Z,6.74
2023-04-30T23:16:29.326Z,6.68
2023-04-30T23:18:56.785Z,6.49
2023-04-30T23:21:23.538Z,6.44
2023-04-30T23:23:50.490Z,6.33
2023-04-30T23:26:17.281Z,6.31
2023-04-30T23:28:44.037Z,6.22
2023-04-30T23:31:10.745Z,6.24
2023-04-30T23:33:37.617Z,6.38
2023-04-30T23:36:05.141Z,6.37
2023-04-30T23:38:31.879Z,6.30
2023-04-30T23:40:58.679Z,6.30
2023-04-30T23:43:25.623Z,6.34
2023-04-30T23:45:52.453Z,6.28
2023-04-30T23:48:19.431Z,6.17
2023-04-30T23:50:47.263Z,6.24
2023-04-30T23:53:17.228Z,6.32
2023-04-30T23:55:44.211Z,6.26
2023-04-30T23:58:11.066Z,6.29
